Airport View

Enter AWOS ICAO identifier for current METAR.

ex. KFNL

KPMH 290259Z AUTO 24003KT 10SM RA BKN075 OVC120 12/12 A2993 RMK AO2 P0010

29 Sep 2020 03:42

Frequency: 125.175

Phone: 740-820-2500

Other Area AWOS: KDWU - KHTS - K3I2 - KUNI

TAF AMD KHTS 290252Z 2903/2924 30008KT 3SM SHRA BR BKN011 FM290700 28005KT 2SM BR OVC009 FM291000 29002KT 4SM BR BKN012 FM291700 26003KT P6SM OVC025 FM292100 15004KT P6SM OVC050